Time;durP1;ratioP1;P1;durP2;ratioP2;P2;SDS_P1;SDS_P2;PMS_P1;PMS_P2;Temp;Humidity;BMP_temperature;BMP_pressure;BME280_temperature;BME280_humidity;BME280_pressure;Samples;Min_cycle;Max_cycle;Signal;HPM_P1;HPM_P2
2022/02/13 00:00:09;;;;;;;9.50;4.07;;;;;;;2.92;100.00;101794.03;4991410;28;21296;-67
2022/02/13 00:02:36;;;;;;;12.20;4.57;;;;;;;2.77;100.00;101782.88;4995302;28;20427;-67
2022/02/13 00:05:02;;;;;;;9.53;4.33;;;;;;;3.01;100.00;101787.13;4993847;28;20511;-68
2022/02/13 00:07:28;;;;;;;6.50;3.87;;;;;;;2.97;100.00;101785.72;4991329;28;20475;-68
2022/02/13 00:09:54;;;;;;;11.20;4.17;;;;;;;2.86;100.00;101779.47;4988922;28;20451;-67
2022/02/13 00:12:19;;;;;;;9.07;4.43;;;;;;;2.43;100.00;101692.94;4993609;28;20190;-68
2022/02/13 00:14:45;;;;;;;8.40;4.30;;;;;;;2.82;100.00;101772.75;4992637;28;20972;-68
2022/02/13 00:17:10;;;;;;;6.07;4.00;;;;;;;2.58;100.00;101749.13;4996210;28;20197;-67
2022/02/13 00:19:36;;;;;;;10.57;4.20;;;;;;;2.88;100.00;101760.81;4997123;28;20547;-68
2022/02/13 00:22:01;;;;;;;9.57;4.50;;;;;;;2.79;100.00;101767.72;4995610;28;20236;-67
2022/02/13 00:24:27;;;;;;;11.00;3.83;;;;;;;2.76;100.00;101748.59;4998227;28;20699;-67
2022/02/13 00:26:52;;;;;;;7.10;3.80;;;;;;;2.75;100.00;101761.00;4996388;28;20224;-68
2022/02/13 00:29:18;;;;;;;7.93;4.50;;;;;;;2.78;100.00;101747.50;5000620;28;20200;-68
2022/02/13 00:31:43;;;;;;;10.73;4.43;;;;;;;2.69;100.00;101724.38;5000779;28;20841;-66
2022/02/13 00:34:09;;;;;;;12.30;4.60;;;;;;;2.65;100.00;101729.09;4998828;28;20210;-67
2022/02/13 00:36:34;;;;;;;9.50;4.83;;;;;;;2.83;100.00;101747.09;4995094;28;20271;-67
2022/02/13 00:39:00;;;;;;;13.27;4.03;;;;;;;2.61;100.00;101718.91;4996076;28;20185;-66
2022/02/13 00:41:26;;;;;;;7.30;3.83;;;;;;;2.42;100.00;101698.34;4994439;28;20194;-67
2022/02/13 00:43:51;;;;;;;8.40;4.67;;;;;;;2.83;100.00;101736.50;4992644;28;20326;-69
2022/02/13 00:46:16;;;;;;;9.23;4.00;;;;;;;2.75;100.00;101728.34;4992463;28;20209;-69
2022/02/13 00:48:42;;;;;;;9.53;4.17;;;;;;;2.77;100.00;101713.16;4989760;28;20261;-67
2022/02/13 00:51:08;;;;;;;8.50;4.40;;;;;;;2.71;100.00;101709.22;4990043;28;20320;-67
2022/02/13 00:53:33;;;;;;;8.10;4.40;;;;;;;2.92;100.00;101719.84;4994627;28;20205;-69
2022/02/13 00:55:59;;;;;;;7.00;4.33;;;;;;;2.58;100.00;101697.97;4992180;28;20209;-68
2022/02/13 00:58:27;;;;;;;8.70;4.20;;;;;;;2.66;100.00;101727.28;4989195;28;20237;-68
2022/02/13 01:00:52;;;;;;;8.63;3.97;;;;;;;2.69;100.00;101719.94;4992426;28;20207;-68
2022/02/13 01:03:18;;;;;;;6.37;3.30;;;;;;;2.68;100.00;101706.81;5014640;28;20472;-68
2022/02/13 01:05:43;;;;;;;7.53;4.07;;;;;;;2.79;100.00;101720.03;5037577;22;20258;-74
2022/02/13 01:08:09;;;;;;;7.80;3.95;;;;;;;2.75;100.00;101718.59;5039760;28;20234;-73
2022/02/13 01:10:34;;;;;;;8.33;3.73;;;;;;;2.54;100.00;101647.03;5037188;28;20190;-73
2022/02/13 01:13:01;;;;;;;11.30;4.73;;;;;;;0.83;100.00;101413.97;5035478;28;20679;-73
2022/02/13 01:15:26;;;;;;;9.20;4.70;;;;;;;2.78;100.00;101696.28;5017362;28;20234;-72
2022/02/13 01:17:52;;;;;;;7.17;4.13;;;;;;;2.41;100.00;101651.66;5037196;28;20438;-71
2022/02/13 01:20:17;;;;;;;10.93;4.40;;;;;;;2.56;100.00;101649.56;5040268;28;20180;-71
2022/02/13 01:22:43;;;;;;;13.23;4.40;;;;;;;1.90;100.00;101570.25;5038318;28;20184;-72
2022/02/13 01:25:08;;;;;;;10.77;4.37;;;;;;;2.20;100.00;101633.91;5039402;28;20212;-73
2022/02/13 01:27:34;;;;;;;10.10;4.53;;;;;;;2.22;100.00;101626.66;5039040;28;20207;-73
2022/02/13 01:29:59;;;;;;;7.40;4.50;;;;;;;1.93;100.00;101546.19;5035993;28;20211;-72
2022/02/13 01:32:25;;;;;;;13.37;4.90;;;;;;;2.43;100.00;101657.66;5031376;28;20206;-75
2022/02/13 01:34:50;;;;;;;7.73;4.30;;;;;;;2.58;100.00;101664.34;5036034;28;20219;-71
2022/02/13 01:37:16;;;;;;;10.97;4.60;;;;;;;2.17;100.00;101573.28;5033887;28;20207;-73
2022/02/13 01:39:41;;;;;;;8.40;4.10;;;;;;;2.71;100.00;101656.22;5034647;28;20215;-74
2022/02/13 01:42:09;;;;;;;9.40;4.63;;;;;;;2.30;100.00;101612.81;5037350;28;20875;-73
2022/02/13 01:44:35;;;;;;;8.17;4.57;;;;;;;2.50;100.00;101635.00;5035362;28;20204;-72
2022/02/13 01:47:02;;;;;;;10.00;5.23;;;;;;;2.58;100.00;101631.75;5035222;28;21570;-73
2022/02/13 01:49:28;;;;;;;6.47;4.47;;;;;;;2.08;100.00;101529.03;5021396;28;20446;-73
2022/02/13 01:51:57;;;;;;;12.07;4.73;;;;;;;2.48;100.00;101627.19;5038263;28;20442;-72
2022/02/13 01:54:23;;;;;;;7.60;4.10;;;;;;;2.09;100.00;101540.50;5034640;28;20218;-71
2022/02/13 01:56:49;;;;;;;10.23;4.53;;;;;;;1.79;100.00;101489.97;5035203;28;20438;-75
2022/02/13 01:59:15;;;;;;;9.20;3.77;;;;;;;2.38;100.00;101612.19;5032762;28;20209;-75
2022/02/13 02:01:41;;;;;;;8.67;5.03;;;;;;;2.42;100.00;101617.09;5034360;28;20961;-74
2022/02/13 02:04:07;;;;;;;9.87;4.67;;;;;;;2.23;100.00;101593.97;5034015;28;20222;-76
2022/02/13 02:06:32;;;;;;;8.70;4.33;;;;;;;2.07;100.00;101543.25;5034666;28;20560;-74
2022/02/13 02:08:59;;;;;;;7.40;4.50;;;;;;;2.12;100.00;101532.28;5034272;28;20195;-72
2022/02/13 02:11:24;;;;;;;9.43;4.43;;;;;;;2.45;100.00;101606.25;5036288;28;20274;-72
2022/02/13 02:13:50;;;;;;;9.40;5.60;;;;;;;2.39;100.00;101604.13;5036630;28;20875;-72
2022/02/13 02:16:15;;;;;;;11.40;5.17;;;;;;;2.40;100.00;101628.78;5037863;28;20637;-74
2022/02/13 02:18:41;;;;;;;14.77;4.70;;;;;;;2.16;100.00;101554.88;5037367;28;20191;-73
2022/02/13 02:21:08;;;;;;;7.43;4.33;;;;;;;0.93;100.00;101414.13;5038840;28;20401;-73
2022/02/13 02:23:35;;;;;;;9.30;5.00;;;;;;;2.21;100.00;101576.53;5036751;28;20189;-74
2022/02/13 02:26:01;;;;;;;7.00;4.70;;;;;;;2.04;100.00;101556.72;5039273;28;20557;-75
2022/02/13 02:28:27;;;;;;;13.40;4.83;;;;;;;1.34;100.00;101449.59;5039567;28;20442;-74
2022/02/13 02:30:52;;;;;;;12.40;4.77;;;;;;;2.29;100.00;101595.25;5040712;28;20438;-74
2022/02/13 02:33:19;;;;;;;8.67;4.70;;;;;;;2.46;100.00;101605.31;5039716;28;20257;-72
2022/02/13 02:35:47;;;;;;;9.90;4.47;;;;;;;2.40;100.00;101605.81;5039737;28;20349;-73
2022/02/13 02:38:14;;;;;;;11.13;5.10;;;;;;;1.99;100.00;101562.38;5042795;28;20442;-73
2022/02/13 02:40:40;;;;;;;9.30;4.23;;;;;;;2.17;100.00;101583.88;5023305;28;20816;-72
2022/02/13 02:43:06;;;;;;;9.60;5.10;;;;;;;2.39;100.00;101593.53;5033298;28;20835;-73
2022/02/13 02:45:31;;;;;;;8.00;4.35;;;;;;;2.12;100.00;101516.41;5041170;28;20918;-73
2022/02/13 02:47:57;;;;;;;7.70;3.70;;;;;;;2.41;100.00;101583.66;5037055;28;20680;-73
2022/02/13 02:50:23;;;;;;;7.00;4.50;;;;;;;2.53;100.00;101570.38;5038821;28;20222;-71
2022/02/13 02:52:49;;;;;;;9.90;4.00;;;;;;;2.15;100.00;101540.81;5040470;28;20195;-72
2022/02/13 02:55:15;;;;;;;9.37;3.60;;;;;;;1.97;100.00;101498.19;5042418;28;20492;-74
2022/02/13 02:57:40;;;;;;;5.33;3.33;;;;;;;1.92;100.00;101503.00;5037545;28;20942;-73
2022/02/13 03:00:07;;;;;;;8.55;4.45;;;;;;;2.36;100.00;101547.94;5040752;28;20174;-72
2022/02/13 03:02:33;;;;;;;7.20;4.13;;;;;;;2.20;100.00;101565.09;5040902;28;20187;-73
2022/02/13 03:04:59;;;;;;;10.93;4.43;;;;;;;1.20;100.00;101411.06;5024415;28;20458;-72
2022/02/13 03:07:25;;;;;;;9.23;4.40;;;;;;;2.21;100.00;101531.53;5022872;28;20544;-71
2022/02/13 03:09:50;;;;;;;8.90;4.67;;;;;;;2.07;100.00;101505.34;5039020;28;20203;-72
2022/02/13 03:12:16;;;;;;;6.63;3.90;;;;;;;1.76;100.00;101441.75;5035763;28;20443;-72
2022/02/13 03:14:41;;;;;;;9.70;4.40;;;;;;;1.68;100.00;101445.03;5023147;28;20337;-72
2022/02/13 03:17:07;;;;;;;9.47;4.47;;;;;;;1.77;100.00;101451.38;5041717;28;20176;-70
2022/02/13 03:19:33;;;;;;;7.87;4.33;;;;;;;2.28;100.00;101530.03;5040338;28;20245;-72
2022/02/13 03:21:59;;;;;;;12.73;5.43;;;;;;;1.58;100.00;101441.47;5040956;28;20206;-72
2022/02/13 03:24:25;;;;;;;8.73;4.30;;;;;;;1.92;100.00;101479.19;5035540;28;20985;-74
2022/02/13 03:26:50;;;;;;;10.70;4.63;;;;;;;2.32;100.00;101526.19;5039517;28;20203;-75
2022/02/13 03:29:16;;;;;;;7.80;4.30;;;;;;;2.28;100.00;101510.66;5039211;28;20180;-73
2022/02/13 03:31:42;;;;;;;12.07;5.10;;;;;;;1.85;100.00;101459.50;5038219;28;20249;-72
2022/02/13 03:34:07;;;;;;;7.20;4.80;;;;;;;1.31;100.00;101374.03;5034106;28;20212;-71
2022/02/13 03:36:33;;;;;;;7.83;5.00;;;;;;;2.13;100.00;101513.63;5036135;28;21207;-73
2022/02/13 03:38:58;;;;;;;9.27;4.70;;;;;;;0.62;100.00;101255.47;5042929;28;20664;-75
2022/02/13 03:41:24;;;;;;;7.17;4.43;;;;;;;2.15;100.00;101489.69;5037691;28;20560;-74
2022/02/13 03:43:49;;;;;;;9.57;4.97;;;;;;;2.04;100.00;101490.56;5036926;28;20195;-73
2022/02/13 03:46:19;;;;;;;7.40;4.70;;;;;;;1.54;100.00;101387.16;5039940;28;20207;-73
2022/02/13 03:48:44;;;;;;;6.70;4.50;;;;;;;1.74;100.00;101409.31;5037023;28;20215;-71
2022/02/13 03:51:10;;;;;;;12.00;4.97;;;;;;;2.06;100.00;101491.28;5039378;28;20513;-71
2022/02/13 03:53:35;;;;;;;12.03;5.40;;;;;;;1.24;100.00;101353.50;5040533;28;20187;-72
2022/02/13 03:56:01;;;;;;;10.60;4.93;;;;;;;2.14;100.00;101482.69;5036388;28;20219;-71
2022/02/13 03:58:26;;;;;;;10.10;4.53;;;;;;;1.83;100.00;101456.16;5039524;28;20559;-73
2022/02/13 04:00:52;;;;;;;15.23;5.47;;;;;;;1.48;100.00;101414.09;5038849;28;20682;-74
2022/02/13 04:03:17;;;;;;;7.80;4.80;;;;;;;1.18;100.00;101375.13;5032037;28;20219;-73
2022/02/13 04:05:43;;;;;;;8.73;4.30;;;;;;;1.55;100.00;101400.25;5038670;28;20226;-74
2022/02/13 04:08:08;;;;;;;7.70;4.43;;;;;;;1.59;100.00;101424.63;5034725;28;20212;-72
2022/02/13 04:10:34;;;;;;;8.80;4.20;;;;;;;2.23;100.00;101522.50;5039974;28;20187;-72
2022/02/13 04:13:00;;;;;;;6.73;4.73;;;;;;;2.01;100.00;101449.31;5035644;28;20207;-75
2022/02/13 04:15:26;;;;;;;9.77;5.20;;;;;;;2.07;100.00;101510.66;5037878;28;20548;-73
2022/02/13 04:17:52;;;;;;;10.60;4.60;;;;;;;2.10;100.00;101502.47;5035622;28;20657;-73
2022/02/13 04:20:19;;;;;;;8.00;5.07;;;;;;;2.09;100.00;101509.56;5038136;28;20441;-73
2022/02/13 04:22:45;;;;;;;9.03;4.67;;;;;;;1.70;100.00;101427.22;5042472;28;20521;-73
2022/02/13 04:25:11;;;;;;;9.50;4.90;;;;;;;2.17;100.00;101500.97;5037251;28;20573;-72
2022/02/13 04:27:37;;;;;;;7.03;4.97;;;;;;;2.07;100.00;101485.03;5041172;28;20534;-72
2022/02/13 04:30:04;;;;;;;9.83;4.70;;;;;;;1.95;100.00;101478.94;5019937;28;20756;-73
2022/02/13 04:32:30;;;;;;;10.20;4.60;;;;;;;1.78;100.00;101437.19;5035108;28;20443;-74
2022/02/13 04:34:55;;;;;;;10.87;4.40;;;;;;;1.94;100.00;101469.34;5035932;28;20822;-73
2022/02/13 04:37:22;;;;;;;6.57;4.30;;;;;;;1.93;100.00;101461.53;5033943;28;20667;-73
2022/02/13 04:39:48;;;;;;;7.90;4.83;;;;;;;2.01;100.00;101481.06;5036950;28;20582;-75
2022/02/13 04:42:14;;;;;;;5.83;4.40;;;;;;;1.46;100.00;101387.78;5038277;28;20446;-72
2022/02/13 04:44:41;;;;;;;9.53;5.67;;;;;;;1.83;100.00;101450.88;5034346;28;20494;-71
2022/02/13 04:47:08;;;;;;;9.97;5.50;;;;;;;2.04;100.00;101464.94;5034630;28;20213;-72
2022/02/13 04:49:33;;;;;;;7.70;5.00;;;;;;;1.99;100.00;101456.53;5039088;28;20441;-74
2022/02/13 04:51:58;;;;;;;6.63;4.67;;;;;;;1.87;100.00;101454.94;5036903;28;20468;-72
2022/02/13 04:54:24;;;;;;;8.27;5.10;;;;;;;1.91;100.00;101436.97;5035601;28;20919;-74
2022/02/13 04:56:51;;;;;;;9.27;4.90;;;;;;;1.92;100.00;101426.28;5034149;28;20188;-74
2022/02/13 04:59:17;;;;;;;6.23;4.60;;;;;;;1.55;100.00;101405.53;5037701;28;20203;-71
2022/02/13 05:01:42;;;;;;;7.30;4.50;;;;;;;2.14;100.00;101474.75;5021701;28;20519;-73
2022/02/13 05:04:08;;;;;;;8.20;5.30;;;;;;;1.74;100.00;101420.72;5032842;28;20211;-73
2022/02/13 05:06:34;;;;;;;7.73;4.20;;;;;;;1.64;100.00;101381.94;5036792;28;20212;-73
2022/02/13 05:09:00;;;;;;;10.53;4.70;;;;;;;1.30;100.00;101353.84;5032939;28;20287;-73
2022/02/13 05:11:27;;;;;;;11.13;4.80;;;;;;;1.88;100.00;101438.09;5034089;28;20974;-74
2022/02/13 05:13:53;;;;;;;7.23;4.77;;;;;;;0.86;100.00;101304.63;5036704;28;20370;-74
2022/02/13 05:16:18;;;;;;;9.40;4.77;;;;;;;1.43;100.00;101337.81;5035149;28;20441;-74
2022/02/13 05:18:43;;;;;;;6.90;4.50;;;;;;;1.72;100.00;101392.72;5039398;28;20434;-73
2022/02/13 05:21:09;;;;;;;6.97;4.70;;;;;;;1.33;100.00;101364.16;5040699;28;20710;-73
2022/02/13 05:23:34;;;;;;;8.17;4.60;;;;;;;1.69;100.00;101408.84;5037921;28;20714;-74
2022/02/13 05:26:01;;;;;;;10.00;5.23;;;;;;;1.90;100.00;101438.78;5019817;28;20179;-73
2022/02/13 05:28:27;;;;;;;8.50;5.33;;;;;;;1.87;100.00;101444.34;5044348;28;20238;-73
2022/02/13 05:30:53;;;;;;;10.27;5.03;;;;;;;0.56;100.00;101207.63;5043604;28;20446;-72
2022/02/13 05:33:18;;;;;;;12.20;6.13;;;;;;;1.58;100.00;101378.00;5042258;28;20278;-73
2022/02/13 05:35:44;;;;;;;9.50;5.93;;;;;;;1.18;100.00;101312.56;5035708;28;20211;-71
2022/02/13 05:38:09;;;;;;;6.90;4.70;;;;;;;0.47;100.00;101205.75;5037264;28;20187;-71
2022/02/13 05:40:35;;;;;;;7.73;4.97;;;;;;;1.73;100.00;101426.13;5040311;28;20192;-72
2022/02/13 05:43:00;;;;;;;6.83;4.37;;;;;;;1.71;100.00;101425.44;5041139;28;20653;-71
2022/02/13 05:45:26;;;;;;;9.23;5.10;;;;;;;1.70;100.00;101429.88;5040072;28;20207;-72
2022/02/13 05:47:51;;;;;;;8.60;5.10;;;;;;;1.27;100.00;101359.41;5040389;28;20722;-74
2022/02/13 05:50:16;;;;;;;6.90;5.03;;;;;;;0.97;100.00;101278.19;5043365;28;20565;-76
2022/02/13 05:52:42;;;;;;;8.77;5.13;;;;;;;1.20;100.00;101329.13;5041059;28;20230;-71
2022/02/13 05:55:07;;;;;;;9.73;4.80;;;;;;;1.04;100.00;101299.63;5041323;28;20685;-75
2022/02/13 05:57:33;;;;;;;8.30;4.97;;;;;;;1.23;100.00;101342.09;5016107;28;20183;-72
2022/02/13 05:59:59;;;;;;;11.13;4.77;;;;;;;1.54;100.00;101393.28;5040629;28;20188;-72
2022/02/13 06:02:24;;;;;;;9.60;5.03;;;;;;;1.23;100.00;101336.81;5037288;28;20195;-71
2022/02/13 06:04:49;;;;;;;6.20;4.20;;;;;;;1.46;100.00;101347.28;5044209;28;20215;-74
2022/02/13 06:07:15;;;;;;;7.07;5.43;;;;;;;1.39;100.00;101320.53;5044571;28;20235;-75
2022/02/13 06:09:41;;;;;;;9.40;5.07;;;;;;;1.58;100.00;101370.91;5043104;28;20187;-72
2022/02/13 06:12:07;;;;;;;9.43;5.27;;;;;;;0.91;100.00;101252.28;5044985;28;20652;-78
2022/02/13 06:14:33;;;;;;;6.47;4.63;;;;;;;0.87;100.00;101246.41;5044260;28;20511;-75
2022/02/13 06:16:59;;;;;;;5.67;4.37;;;;;;;1.48;100.00;101337.44;5045291;28;20456;-74
2022/02/13 06:19:25;;;;;;;6.43;4.90;;;;;;;1.56;100.00;101353.47;5041774;28;20677;-71
2022/02/13 06:21:51;;;;;;;8.80;5.13;;;;;;;0.94;100.00;101235.34;5044748;28;20484;-73
2022/02/13 06:24:17;;;;;;;9.03;4.60;;;;;;;1.19;100.00;101260.56;5045496;28;20476;-73
2022/02/13 06:26:42;;;;;;;6.03;5.07;;;;;;;1.33;100.00;101289.31;5043570;28;20527;-74
2022/02/13 06:29:09;;;;;;;6.93;4.63;;;;;;;1.83;100.00;101363.56;5043440;28;20183;-72
2022/02/13 06:31:34;;;;;;;9.37;5.40;;;;;;;1.13;100.00;101269.84;5043990;28;20191;-70
2022/02/13 06:34:00;;;;;;;6.67;5.10;;;;;;;1.68;100.00;101356.91;5022787;28;20470;-71
2022/02/13 06:36:26;;;;;;;7.40;5.00;;;;;;;0.95;100.00;101256.31;5041868;28;20176;-74
2022/02/13 06:38:51;;;;;;;7.37;5.40;;;;;;;1.58;100.00;101352.38;5046038;28;20977;-71
2022/02/13 06:41:17;;;;;;;6.70;5.13;;;;;;;1.72;100.00;101353.88;5042275;28;20194;-76
2022/02/13 06:43:42;;;;;;;8.03;4.67;;;;;;;1.31;100.00;101284.16;5037191;28;20180;-73
2022/02/13 06:46:08;;;;;;;8.67;5.47;;;;;;;1.74;100.00;101337.91;5043526;28;20692;-71
2022/02/13 06:48:34;;;;;;;10.00;4.77;;;;;;;0.74;100.00;101187.63;5044172;28;20227;-75
2022/02/13 06:51:00;;;;;;;7.93;4.97;;;;;;;1.50;100.00;101307.25;5043543;28;20278;-75
2022/02/13 06:53:27;;;;;;;7.13;4.90;;;;;;;1.76;100.00;101331.50;5044369;28;20450;-75
2022/02/13 06:55:55;;;;;;;11.63;5.40;;;;;;;1.46;100.00;101311.13;5044907;28;20229;-75
2022/02/13 06:58:21;;;;;;;12.37;5.40;;;;;;;1.72;100.00;101331.91;5023937;28;20438;-79
2022/02/13 07:00:46;;;;;;;7.10;4.43;;;;;;;0.76;100.00;101184.88;5048063;28;20414;-73
2022/02/13 07:03:12;;;;;;;8.73;5.23;;;;;;;1.55;100.00;101331.50;5039390;28;20214;-78
2022/02/13 07:05:37;;;;;;;9.93;4.23;;;;;;;1.76;100.00;101323.56;5045123;28;20212;-77
2022/02/13 07:08:03;;;;;;;9.83;5.20;;;;;;;1.33;100.00;101262.88;5036403;23;20232;-69
2022/02/13 07:10:29;;;;;;;8.73;5.23;;;;;;;1.68;100.00;101328.69;5005169;28;20445;-70
2022/02/13 07:12:54;;;;;;;9.13;5.00;;;;;;;1.72;100.00;101308.09;5002943;28;20405;-69
2022/02/13 07:15:19;;;;;;;12.13;4.70;;;;;;;1.76;100.00;101315.63;5004864;28;20227;-70
2022/02/13 07:17:45;;;;;;;7.20;5.00;;;;;;;1.78;100.00;101305.75;5004723;28;20197;-71
2022/02/13 07:20:12;;;;;;;7.23;5.00;;;;;;;1.76;100.00;101315.63;5004195;28;20268;-69
2022/02/13 07:22:38;;;;;;;10.80;5.47;;;;;;;1.80;100.00;101318.88;5010034;28;20439;-70
2022/02/13 07:25:08;;;;;;;7.17;5.40;;;;;;;1.79;100.00;101311.88;5005724;28;20474;-70
2022/02/13 07:27:35;;;;;;;7.20;4.90;;;;;;;1.85;100.00;101300.78;5004980;28;20217;-70
2022/02/13 07:30:00;;;;;;;8.53;4.70;;;;;;;1.65;100.00;101293.69;5005586;28;20438;-70
2022/02/13 07:32:26;;;;;;;6.90;4.93;;;;;;;1.76;100.00;101285.69;5005311;28;20436;-70
2022/02/13 07:34:51;;;;;;;6.13;4.70;;;;;;;1.51;100.00;101261.34;5000803;28;20181;-70
2022/02/13 07:37:17;;;;;;;6.90;4.60;;;;;;;1.91;100.00;101299.41;5003223;28;20646;-68
2022/02/13 07:39:42;;;;;;;6.07;4.60;;;;;;;1.79;100.00;101273.06;5000342;28;20193;-70
2022/02/13 07:42:07;;;;;;;9.60;4.97;;;;;;;1.44;100.00;101214.41;4998162;28;20184;-70
2022/02/13 07:44:33;;;;;;;8.23;4.40;;;;;;;1.93;100.00;101295.66;4998277;28;21033;-70
2022/02/13 07:46:59;;;;;;;6.30;4.67;;;;;;;1.88;100.00;101255.56;4999064;28;20199;-68
2022/02/13 07:49:24;;;;;;;7.63;4.50;;;;;;;1.99;100.00;101271.34;4998503;28;20205;-68
2022/02/13 07:51:50;;;;;;;11.07;4.97;;;;;;;1.54;100.00;101212.66;5007220;28;21023;-68
2022/02/13 07:54:15;;;;;;;7.27;5.07;;;;;;;1.80;100.00;101265.97;5003279;28;20665;-71
2022/02/13 07:56:41;;;;;;;9.17;5.07;;;;;;;2.21;100.00;101298.59;5005028;28;20662;-68
2022/02/13 07:59:07;;;;;;;10.63;4.90;;;;;;;2.08;100.00;101301.44;5006864;28;20221;-67
2022/02/13 08:01:33;;;;;;;7.10;4.80;;;;;;;1.29;100.00;101161.88;5005869;28;20440;-69
2022/02/13 08:03:58;;;;;;;10.07;4.77;;;;;;;2.15;100.00;101288.56;5006205;28;20185;-68
2022/02/13 08:06:24;;;;;;;11.80;5.10;;;;;;;1.84;100.00;101246.22;4995621;28;20439;-71
2022/02/13 08:08:51;;;;;;;8.80;5.60;;;;;;;1.90;100.00;101250.13;5001249;28;20208;-69
2022/02/13 08:11:18;;;;;;;5.77;4.60;;;;;;;1.89;100.00;101256.41;5000885;28;20193;-70
2022/02/13 08:13:44;;;;;;;8.13;4.50;;;;;;;2.13;100.00;101304.53;4989882;28;20571;-70
2022/02/13 08:16:10;;;;;;;8.50;5.30;;;;;;;2.01;100.00;101279.16;4996282;28;20571;-70
2022/02/13 08:18:39;;;;;;;8.13;4.90;;;;;;;1.87;100.00;101242.47;4994187;28;20493;-68
2022/02/13 08:21:06;;;;;;;6.63;4.77;;;;;;;1.89;100.00;101238.72;4996367;28;20180;-68
2022/02/13 08:23:32;;;;;;;9.77;4.40;;;;;;;2.31;100.00;101298.63;4997528;28;20454;-69
2022/02/13 08:25:57;;;;;;;6.13;4.87;;;;;;;1.89;100.00;101236.06;5000262;28;20432;-69
2022/02/13 08:28:23;;;;;;;8.50;5.40;;;;;;;2.36;100.00;101293.78;5004086;28;21237;-68
2022/02/13 08:30:48;;;;;;;5.33;4.77;;;;;;;2.38;100.00;101290.03;5001224;28;20185;-68
2022/02/13 08:33:14;;;;;;;10.37;5.80;;;;;;;2.36;100.00;101291.97;4998661;28;20185;-70
2022/02/13 08:35:40;;;;;;;8.73;5.27;;;;;;;2.41;100.00;101289.75;4992009;28;20271;-69
2022/02/13 08:38:06;;;;;;;7.80;5.00;;;;;;;2.54;100.00;101292.16;4991561;28;20209;-70
2022/02/13 08:40:33;;;;;;;11.33;4.97;;;;;;;2.47;100.00;101277.78;4994673;28;20181;-69
2022/02/13 08:43:04;;;;;;;9.70;4.70;;;;;;;2.64;100.00;101281.59;4997461;28;20431;-68
2022/02/13 08:45:31;;;;;;;9.33;5.93;;;;;;;2.33;100.00;101219.94;4991065;28;20804;-69
2022/02/13 08:47:57;;;;;;;6.00;4.40;;;;;;;2.17;100.00;101193.97;4995837;28;20475;-69
2022/02/13 08:50:24;;;;;;;6.70;5.00;;;;;;;2.67;100.00;101273.38;4997227;28;20498;-68
2022/02/13 08:52:50;;;;;;;5.70;4.75;;;;;;;2.25;100.00;101202.06;4992630;28;20181;-69
2022/02/13 08:55:16;;;;;;;6.30;4.37;;;;;;;2.62;100.00;101242.00;4990489;28;20445;-70
2022/02/13 08:57:43;;;;;;;5.97;4.80;;;;;;;2.43;100.00;101216.34;4993406;28;20462;-70
2022/02/13 09:00:13;;;;;;;6.87;4.47;;;;;;;2.78;100.00;101275.03;4993528;28;20440;-69
2022/02/13 09:02:39;;;;;;;7.87;4.83;;;;;;;2.90;100.00;101272.16;4998829;28;20214;-70
2022/02/13 09:05:09;;;;;;;10.27;5.47;;;;;;;2.84;100.00;101267.41;4995651;28;20448;-69
2022/02/13 09:07:36;;;;;;;7.40;4.70;;;;;;;2.76;100.00;101245.22;4996876;28;20479;-68
2022/02/13 09:10:02;;;;;;;8.20;5.13;;;;;;;2.89;100.00;101259.03;4987781;28;22548;-69
2022/02/13 09:12:29;;;;;;;5.77;4.70;;;;;;;2.43;100.00;101173.97;4996532;28;20446;-69
2022/02/13 09:14:55;;;;;;;7.07;5.10;;;;;;;2.63;100.00;101230.44;4993871;28;20575;-69
2022/02/13 09:17:20;;;;;;;5.10;4.43;;;;;;;2.92;100.00;101274.66;4995465;28;20542;-68
2022/02/13 09:19:46;;;;;;;6.80;4.53;;;;;;;2.63;100.00;101208.41;4990723;28;20220;-68
2022/02/13 09:22:12;;;;;;;6.30;4.70;;;;;;;2.67;100.00;101201.88;4994954;28;20281;-70
2022/02/13 09:24:37;;;;;;;6.90;4.57;;;;;;;2.53;100.00;101192.50;4993613;28;20267;-68
2022/02/13 09:27:03;;;;;;;6.27;4.70;;;;;;;2.48;100.00;101168.25;4994120;28;20770;-69
2022/02/13 09:29:29;;;;;;;7.43;5.07;;;;;;;2.85;100.00;101220.56;4996259;28;20794;-69
2022/02/13 09:31:55;;;;;;;7.27;4.53;;;;;;;2.92;100.00;101254.31;5001858;28;20451;-68
2022/02/13 09:34:25;;;;;;;5.60;4.30;;;;;;;2.93;100.00;101223.34;4994001;28;20215;-69
2022/02/13 09:36:52;;;;;;;6.27;4.70;;;;;;;3.00;100.00;101236.88;4990432;28;20440;-69
2022/02/13 09:39:18;;;;;;;8.20;5.30;;;;;;;2.54;100.00;101151.81;4996961;28;20486;-69
2022/02/13 09:41:44;;;;;;;9.73;5.60;;;;;;;3.21;100.00;101215.50;4998446;28;20940;-70
2022/02/13 09:44:10;;;;;;;5.73;4.63;;;;;;;3.24;100.00;101231.13;4998398;28;20217;-70
2022/02/13 09:46:36;;;;;;;8.43;5.47;;;;;;;2.96;100.00;101166.59;4980006;28;20550;-68
2022/02/13 09:49:05;;;;;;;7.10;4.20;;;;;;;3.32;100.00;101224.13;4993072;28;20502;-70
2022/02/13 09:51:32;;;;;;;9.67;4.77;;;;;;;3.38;100.00;101212.13;5000499;28;20479;-69
2022/02/13 09:53:57;;;;;;;5.57;4.47;;;;;;;3.31;100.00;101188.00;4995077;28;20448;-70
2022/02/13 09:56:23;;;;;;;6.33;4.10;;;;;;;3.20;100.00;101159.00;4995259;28;20446;-69
2022/02/13 09:58:49;;;;;;;8.10;5.03;;;;;;;3.33;100.00;101217.88;4998151;28;20196;-68
2022/02/13 10:01:15;;;;;;;6.10;4.43;;;;;;;3.43;100.00;101203.75;4999306;28;20185;-68
2022/02/13 10:03:43;;;;;;;8.67;4.60;;;;;;;3.14;100.00;101139.19;4998467;28;20189;-68
2022/02/13 10:06:12;;;;;;;8.13;4.40;;;;;;;3.52;100.00;101187.81;5000218;28;20459;-69
2022/02/13 10:08:40;;;;;;;11.33;5.20;;;;;;;3.27;100.00;101170.72;4998371;28;21480;-68
2022/02/13 10:11:11;;;;;;;9.80;4.80;;;;;;;3.32;100.00;101159.66;4998913;28;20452;-69
2022/02/13 10:13:49;;;;;;;6.63;4.30;;;;;;;3.56;100.00;101185.72;4997734;28;20444;-69
2022/02/13 10:16:28;;;;;;;7.43;5.40;;;;;;;3.20;100.00;101127.19;4990910;28;20539;-69
2022/02/13 10:19:07;;;;;;;9.37;5.60;;;;;;;3.59;100.00;101173.00;4997840;28;20535;-69
2022/02/13 10:21:52;;;;;;;7.73;4.13;;;;;;;3.55;100.00;101133.63;4992974;28;20478;-70
2022/02/13 10:24:21;;;;;;;7.97;4.20;;;;;;;3.75;100.00;101169.72;4998295;28;20447;-69
2022/02/13 10:27:03;;;;;;;7.10;4.27;;;;;;;3.51;100.00;101143.72;4997285;28;20464;-69
2022/02/13 10:29:33;;;;;;;5.90;3.93;;;;;;;3.69;100.00;101165.00;4995047;28;20440;-69
2022/02/13 10:32:18;;;;;;;6.93;4.43;;;;;;;3.75;100.00;101161.75;4995348;28;20447;-69
2022/02/13 10:35:12;;;;;;;7.60;4.80;;;;;;;3.84;100.00;101176.78;4996242;28;20462;-67
2022/02/13 10:37:55;;;;;;;7.27;4.60;;;;;;;3.76;100.00;101165.22;4996566;28;20463;-68
2022/02/13 10:40:26;;;;;;;9.00;4.30;;;;;;;3.77;100.00;101165.09;4993526;28;21119;-69
2022/02/13 10:43:20;;;;;;;7.60;5.83;;;;;;;3.76;100.00;101158.13;4991031;28;20458;-67
2022/02/13 10:45:46;;;;;;;6.93;4.07;;;;;;;3.91;100.00;101155.00;4981204;28;20451;-68
2022/02/13 10:48:12;;;;;;;7.23;4.90;;;;;;;3.94;100.00;101166.16;4987666;28;20475;-69
2022/02/13 10:50:40;;;;;;;4.87;4.30;;;;;;;3.90;100.00;101150.66;4996355;28;20193;-69
2022/02/13 10:53:07;;;;;;;6.50;4.60;;;;;;;3.60;100.00;101126.06;4993101;28;20526;-70
2022/02/13 10:55:35;;;;;;;6.70;4.40;;;;;;;3.82;100.00;101149.59;5001926;28;20470;-69
2022/02/13 10:58:02;;;;;;;8.53;4.53;;;;;;;3.91;100.00;101131.09;5006237;28;20464;-69
2022/02/13 11:00:30;;;;;;;6.90;4.90;;;;;;;3.20;100.00;101015.03;5008590;28;20501;-70
2022/02/13 11:03:01;;;;;;;9.33;4.63;;;;;;;3.87;100.00;101106.66;5006307;28;20443;-69
2022/02/13 11:05:29;;;;;;;5.30;4.30;;;;;;;3.55;100.00;101059.38;5006634;28;20428;-69
2022/02/13 11:08:01;;;;;;;6.60;4.67;;;;;;;4.05;100.00;101117.31;5006971;28;21109;-69
2022/02/13 11:10:34;;;;;;;9.07;4.63;;;;;;;3.86;100.00;101059.88;5009187;28;20444;-69
2022/02/13 11:13:00;;;;;;;6.10;5.07;;;;;;;4.24;100.00;101116.34;5008795;28;20423;-71
2022/02/13 11:15:30;;;;;;;5.30;3.83;;;;;;;4.23;100.00;101112.88;5010525;28;20933;-70
2022/02/13 11:18:08;;;;;;;6.63;4.67;;;;;;;4.11;100.00;101076.91;5007298;28;20488;-70
2022/02/13 11:20:35;;;;;;;6.63;4.47;;;;;;;4.26;100.00;101101.94;5008788;28;20439;-70